sensor_id;sensor_type;location;lat;lon;timestamp;P1;durP1;ratioP1;P2;durP2;ratioP2
79539;SDS011;74475;52.122;5.406;2024-01-30T00:00:07;3.50;;;2.38;;
79539;SDS011;74475;52.122;5.406;2024-01-30T00:02:34;4.05;;;2.42;;
79539;SDS011;74475;52.122;5.406;2024-01-30T00:05:00;5.72;;;2.13;;
79539;SDS011;74475;52.122;5.406;2024-01-30T00:07:27;3.05;;;2.45;;
79539;SDS011;74475;52.122;5.406;2024-01-30T00:09:54;3.58;;;2.50;;
79539;SDS011;74475;52.122;5.406;2024-01-30T00:12:21;4.28;;;2.30;;
79539;SDS011;74475;52.122;5.406;2024-01-30T00:14:47;3.72;;;2.55;;
79539;SDS011;74475;52.122;5.406;2024-01-30T00:17:19;5.35;;;2.53;;
79539;SDS011;74475;52.122;5.406;2024-01-30T00:19:46;3.67;;;2.45;;
79539;SDS011;74475;52.122;5.406;2024-01-30T00:22:13;3.50;;;2.50;;
79539;SDS011;74475;52.122;5.406;2024-01-30T00:24:40;4.15;;;2.95;;
79539;SDS011;74475;52.122;5.406;2024-01-30T00:27:07;3.28;;;2.22;;
79539;SDS011;74475;52.122;5.406;2024-01-30T00:29:34;5.07;;;2.65;;
79539;SDS011;74475;52.122;5.406;2024-01-30T00:32:01;4.20;;;2.55;;
79539;SDS011;74475;52.122;5.406;2024-01-30T00:34:27;3.90;;;2.35;;
79539;SDS011;74475;52.122;5.406;2024-01-30T00:36:54;4.18;;;2.63;;
79539;SDS011;74475;52.122;5.406;2024-01-30T00:39:20;3.20;;;2.50;;
79539;SDS011;74475;52.122;5.406;2024-01-30T00:41:47;4.75;;;2.70;;
79539;SDS011;74475;52.122;5.406;2024-01-30T00:44:14;3.33;;;2.58;;
79539;SDS011;74475;52.122;5.406;2024-01-30T00:46:40;3.63;;;2.42;;
79539;SDS011;74475;52.122;5.406;2024-01-30T00:49:06;3.55;;;2.50;;
79539;SDS011;74475;52.122;5.406;2024-01-30T00:51:33;4.82;;;2.63;;
79539;SDS011;74475;52.122;5.406;2024-01-30T00:54:00;3.90;;;2.40;;
79539;SDS011;74475;52.122;5.406;2024-01-30T00:56:26;3.15;;;2.38;;
79539;SDS011;74475;52.122;5.406;2024-01-30T00:58:53;3.95;;;2.65;;
79539;SDS011;74475;52.122;5.406;2024-01-30T01:01:19;3.53;;;2.53;;
79539;SDS011;74475;52.122;5.406;2024-01-30T01:03:46;3.72;;;2.40;;
79539;SDS011;74475;52.122;5.406;2024-01-30T01:06:12;3.70;;;2.78;;
79539;SDS011;74475;52.122;5.406;2024-01-30T01:08:39;4.45;;;2.53;;
79539;SDS011;74475;52.122;5.406;2024-01-30T01:11:06;3.25;;;2.40;;
79539;SDS011;74475;52.122;5.406;2024-01-30T01:13:32;4.13;;;2.95;;
79539;SDS011;74475;52.122;5.406;2024-01-30T01:15:58;3.67;;;2.33;;
79539;SDS011;74475;52.122;5.406;2024-01-30T01:18:25;3.13;;;2.35;;
79539;SDS011;74475;52.122;5.406;2024-01-30T01:20:51;4.35;;;2.70;;
79539;SDS011;74475;52.122;5.406;2024-01-30T01:23:18;3.00;;;2.60;;
79539;SDS011;74475;52.122;5.406;2024-01-30T01:25:45;3.25;;;2.58;;
79539;SDS011;74475;52.122;5.406;2024-01-30T01:28:11;3.67;;;3.00;;
79539;SDS011;74475;52.122;5.406;2024-01-30T01:30:37;3.78;;;2.60;;
79539;SDS011;74475;52.122;5.406;2024-01-30T01:33:05;3.88;;;2.63;;
79539;SDS011;74475;52.122;5.406;2024-01-30T01:35:33;4.22;;;2.83;;
79539;SDS011;74475;52.122;5.406;2024-01-30T01:38:00;4.00;;;2.83;;
79539;SDS011;74475;52.122;5.406;2024-01-30T01:40:27;3.85;;;2.38;;
79539;SDS011;74475;52.122;5.406;2024-01-30T01:42:54;4.45;;;2.65;;
79539;SDS011;74475;52.122;5.406;2024-01-30T01:45:22;5.15;;;3.03;;
79539;SDS011;74475;52.122;5.406;2024-01-30T01:47:52;4.20;;;2.80;;
79539;SDS011;74475;52.122;5.406;2024-01-30T01:52:47;2.80;;;2.13;;
79539;SDS011;74475;52.122;5.406;2024-01-30T01:55:14;2.88;;;2.58;;
79539;SDS011;74475;52.122;5.406;2024-01-30T01:57:42;3.90;;;2.17;;
79539;SDS011;74475;52.122;5.406;2024-01-30T02:00:09;3.88;;;2.50;;
79539;SDS011;74475;52.122;5.406;2024-01-30T02:02:36;3.75;;;2.70;;
79539;SDS011;74475;52.122;5.406;2024-01-30T02:05:03;3.70;;;2.92;;
79539;SDS011;74475;52.122;5.406;2024-01-30T02:07:30;5.07;;;2.70;;
79539;SDS011;74475;52.122;5.406;2024-01-30T02:09:57;4.07;;;2.63;;
79539;SDS011;74475;52.122;5.406;2024-01-30T02:12:23;3.78;;;2.72;;
79539;SDS011;74475;52.122;5.406;2024-01-30T02:14:50;4.72;;;2.65;;
79539;SDS011;74475;52.122;5.406;2024-01-30T02:17:16;4.30;;;2.83;;
79539;SDS011;74475;52.122;5.406;2024-01-30T02:19:43;3.05;;;2.50;;
79539;SDS011;74475;52.122;5.406;2024-01-30T02:22:10;3.65;;;2.03;;
79539;SDS011;74475;52.122;5.406;2024-01-30T02:24:37;3.60;;;2.60;;
79539;SDS011;74475;52.122;5.406;2024-01-30T02:27:04;3.65;;;2.67;;
79539;SDS011;74475;52.122;5.406;2024-01-30T02:29:30;3.83;;;2.78;;
79539;SDS011;74475;52.122;5.406;2024-01-30T02:31:57;3.20;;;2.60;;
79539;SDS011;74475;52.122;5.406;2024-01-30T02:34:23;3.33;;;2.20;;
79539;SDS011;74475;52.122;5.406;2024-01-30T02:36:50;3.50;;;2.28;;
79539;SDS011;74475;52.122;5.406;2024-01-30T02:39:17;3.55;;;2.85;;
79539;SDS011;74475;52.122;5.406;2024-01-30T02:41:43;3.20;;;2.58;;
79539;SDS011;74475;52.122;5.406;2024-01-30T02:44:09;4.72;;;2.50;;
79539;SDS011;74475;52.122;5.406;2024-01-30T02:46:36;4.07;;;2.50;;
79539;SDS011;74475;52.122;5.406;2024-01-30T02:49:02;4.13;;;2.45;;
79539;SDS011;74475;52.122;5.406;2024-01-30T02:51:29;4.63;;;2.40;;
79539;SDS011;74475;52.122;5.406;2024-01-30T02:53:55;3.80;;;2.40;;
79539;SDS011;74475;52.122;5.406;2024-01-30T02:56:22;3.25;;;2.50;;
79539;SDS011;74475;52.122;5.406;2024-01-30T02:58:48;4.22;;;2.58;;
79539;SDS011;74475;52.122;5.406;2024-01-30T03:01:15;3.92;;;2.70;;
79539;SDS011;74475;52.122;5.406;2024-01-30T03:03:41;3.33;;;2.60;;
79539;SDS011;74475;52.122;5.406;2024-01-30T03:06:09;3.00;;;2.70;;
79539;SDS011;74475;52.122;5.406;2024-01-30T03:08:36;3.53;;;2.35;;
79539;SDS011;74475;52.122;5.406;2024-01-30T03:11:02;3.97;;;3.13;;
79539;SDS011;74475;52.122;5.406;2024-01-30T03:13:29;3.28;;;2.60;;
79539;SDS011;74475;52.122;5.406;2024-01-30T03:15:55;4.13;;;2.60;;
79539;SDS011;74475;52.122;5.406;2024-01-30T03:18:22;2.85;;;2.40;;
79539;SDS011;74475;52.122;5.406;2024-01-30T03:20:48;3.78;;;2.80;;
79539;SDS011;74475;52.122;5.406;2024-01-30T03:23:15;3.63;;;2.45;;
79539;SDS011;74475;52.122;5.406;2024-01-30T03:25:41;3.67;;;2.85;;
79539;SDS011;74475;52.122;5.406;2024-01-30T03:28:07;3.25;;;2.95;;
79539;SDS011;74475;52.122;5.406;2024-01-30T03:30:34;2.85;;;2.50;;
79539;SDS011;74475;52.122;5.406;2024-01-30T03:33:01;3.63;;;2.65;;
79539;SDS011;74475;52.122;5.406;2024-01-30T03:35:27;3.55;;;2.60;;
79539;SDS011;74475;52.122;5.406;2024-01-30T03:37:54;4.32;;;2.70;;
79539;SDS011;74475;52.122;5.406;2024-01-30T03:40:20;3.45;;;2.70;;
79539;SDS011;74475;52.122;5.406;2024-01-30T03:42:47;3.58;;;2.67;;
79539;SDS011;74475;52.122;5.406;2024-01-30T03:45:13;3.25;;;2.10;;
79539;SDS011;74475;52.122;5.406;2024-01-30T03:47:40;3.60;;;2.88;;
79539;SDS011;74475;52.122;5.406;2024-01-30T03:50:09;4.80;;;3.00;;
79539;SDS011;74475;52.122;5.406;2024-01-30T03:52:36;4.05;;;2.58;;
79539;SDS011;74475;52.122;5.406;2024-01-30T03:55:03;3.80;;;2.40;;
79539;SDS011;74475;52.122;5.406;2024-01-30T03:57:29;3.22;;;2.50;;
79539;SDS011;74475;52.122;5.406;2024-01-30T03:59:56;4.03;;;2.28;;
79539;SDS011;74475;52.122;5.406;2024-01-30T04:02:25;3.97;;;2.53;;
79539;SDS011;74475;52.122;5.406;2024-01-30T04:04:52;3.25;;;2.72;;
79539;SDS011;74475;52.122;5.406;2024-01-30T04:07:18;3.47;;;2.75;;
79539;SDS011;74475;52.122;5.406;2024-01-30T04:09:49;3.90;;;2.67;;
79539;SDS011;74475;52.122;5.406;2024-01-30T04:12:15;3.08;;;2.42;;
79539;SDS011;74475;52.122;5.406;2024-01-30T04:14:43;3.45;;;2.65;;
79539;SDS011;74475;52.122;5.406;2024-01-30T04:17:10;3.60;;;2.45;;
79539;SDS011;74475;52.122;5.406;2024-01-30T04:19:39;3.03;;;2.53;;
79539;SDS011;74475;52.122;5.406;2024-01-30T04:22:07;3.40;;;2.50;;
79539;SDS011;74475;52.122;5.406;2024-01-30T04:24:34;3.85;;;3.05;;
79539;SDS011;74475;52.122;5.406;2024-01-30T04:27:00;3.65;;;2.55;;
79539;SDS011;74475;52.122;5.406;2024-01-30T04:29:26;3.55;;;2.40;;
79539;SDS011;74475;52.122;5.406;2024-01-30T04:31:53;3.45;;;2.20;;
79539;SDS011;74475;52.122;5.406;2024-01-30T04:34:19;4.75;;;2.80;;
79539;SDS011;74475;52.122;5.406;2024-01-30T04:36:46;3.22;;;2.63;;
79539;SDS011;74475;52.122;5.406;2024-01-30T04:39:13;3.47;;;2.65;;
79539;SDS011;74475;52.122;5.406;2024-01-30T04:41:39;2.92;;;2.35;;
79539;SDS011;74475;52.122;5.406;2024-01-30T04:44:06;3.60;;;2.70;;
79539;SDS011;74475;52.122;5.406;2024-01-30T04:46:33;4.30;;;2.65;;
79539;SDS011;74475;52.122;5.406;2024-01-30T04:49:00;4.07;;;2.42;;
79539;SDS011;74475;52.122;5.406;2024-01-30T04:51:27;3.80;;;2.83;;
79539;SDS011;74475;52.122;5.406;2024-01-30T04:53:53;2.88;;;2.42;;
79539;SDS011;74475;52.122;5.406;2024-01-30T04:56:20;2.90;;;2.30;;
79539;SDS011;74475;52.122;5.406;2024-01-30T04:58:46;4.28;;;2.38;;
79539;SDS011;74475;52.122;5.406;2024-01-30T05:01:15;3.10;;;2.53;;
79539;SDS011;74475;52.122;5.406;2024-01-30T05:03:42;3.85;;;2.03;;
79539;SDS011;74475;52.122;5.406;2024-01-30T05:06:09;6.55;;;2.60;;
79539;SDS011;74475;52.122;5.406;2024-01-30T05:08:36;3.25;;;2.22;;
79539;SDS011;74475;52.122;5.406;2024-01-30T05:11:03;2.85;;;2.53;;
79539;SDS011;74475;52.122;5.406;2024-01-30T05:13:31;3.85;;;2.42;;
79539;SDS011;74475;52.122;5.406;2024-01-30T05:15:58;3.60;;;2.40;;
79539;SDS011;74475;52.122;5.406;2024-01-30T05:18:24;2.88;;;2.33;;
79539;SDS011;74475;52.122;5.406;2024-01-30T05:20:51;3.60;;;2.28;;
79539;SDS011;74475;52.122;5.406;2024-01-30T05:23:18;3.60;;;2.65;;
79539;SDS011;74475;52.122;5.406;2024-01-30T05:25:44;2.95;;;2.47;;
79539;SDS011;74475;52.122;5.406;2024-01-30T05:28:10;3.55;;;2.70;;
79539;SDS011;74475;52.122;5.406;2024-01-30T05:30:37;4.10;;;2.65;;
79539;SDS011;74475;52.122;5.406;2024-01-30T05:33:03;2.95;;;2.28;;
79539;SDS011;74475;52.122;5.406;2024-01-30T05:35:30;3.45;;;2.30;;
79539;SDS011;74475;52.122;5.406;2024-01-30T05:37:57;3.85;;;2.22;;
79539;SDS011;74475;52.122;5.406;2024-01-30T05:40:24;2.95;;;2.50;;
79539;SDS011;74475;52.122;5.406;2024-01-30T05:42:50;2.60;;;2.22;;
79539;SDS011;74475;52.122;5.406;2024-01-30T05:45:16;2.80;;;2.30;;
79539;SDS011;74475;52.122;5.406;2024-01-30T05:47:43;3.00;;;2.30;;
79539;SDS011;74475;52.122;5.406;2024-01-30T05:50:10;2.78;;;2.17;;
79539;SDS011;74475;52.122;5.406;2024-01-30T05:52:36;3.38;;;2.53;;
79539;SDS011;74475;52.122;5.406;2024-01-30T05:55:03;2.70;;;2.42;;
79539;SDS011;74475;52.122;5.406;2024-01-30T05:57:30;3.10;;;2.45;;
79539;SDS011;74475;52.122;5.406;2024-01-30T05:59:56;3.42;;;2.47;;
79539;SDS011;74475;52.122;5.406;2024-01-30T06:02:23;3.80;;;2.38;;
79539;SDS011;74475;52.122;5.406;2024-01-30T06:04:49;3.15;;;2.40;;
79539;SDS011;74475;52.122;5.406;2024-01-30T06:07:16;3.55;;;2.55;;
79539;SDS011;74475;52.122;5.406;2024-01-30T06:09:44;3.08;;;2.40;;
79539;SDS011;74475;52.122;5.406;2024-01-30T06:12:12;3.40;;;2.40;;
79539;SDS011;74475;52.122;5.406;2024-01-30T06:14:38;4.28;;;2.60;;
79539;SDS011;74475;52.122;5.406;2024-01-30T06:17:05;3.20;;;2.72;;
79539;SDS011;74475;52.122;5.406;2024-01-30T06:19:31;3.40;;;2.60;;
79539;SDS011;74475;52.122;5.406;2024-01-30T06:21:58;3.10;;;2.58;;
79539;SDS011;74475;52.122;5.406;2024-01-30T06:24:25;3.58;;;2.70;;
79539;SDS011;74475;52.122;5.406;2024-01-30T06:26:51;3.72;;;2.40;;
79539;SDS011;74475;52.122;5.406;2024-01-30T06:29:17;3.40;;;2.40;;
79539;SDS011;74475;52.122;5.406;2024-01-30T06:31:45;3.72;;;2.65;;
79539;SDS011;74475;52.122;5.406;2024-01-30T06:34:12;3.03;;;2.25;;
79539;SDS011;74475;52.122;5.406;2024-01-30T06:36:38;2.72;;;1.98;;
79539;SDS011;74475;52.122;5.406;2024-01-30T06:39:05;4.38;;;2.70;;
79539;SDS011;74475;52.122;5.406;2024-01-30T06:41:31;5.85;;;2.75;;
79539;SDS011;74475;52.122;5.406;2024-01-30T06:43:58;3.60;;;2.42;;
79539;SDS011;74475;52.122;5.406;2024-01-30T06:46:25;4.45;;;2.35;;
79539;SDS011;74475;52.122;5.406;2024-01-30T06:48:51;5.03;;;2.70;;
79539;SDS011;74475;52.122;5.406;2024-01-30T06:51:18;2.97;;;2.35;;
79539;SDS011;74475;52.122;5.406;2024-01-30T06:53:44;3.40;;;2.08;;
79539;SDS011;74475;52.122;5.406;2024-01-30T06:56:10;3.25;;;2.10;;
79539;SDS011;74475;52.122;5.406;2024-01-30T06:58:37;3.42;;;2.50;;
79539;SDS011;74475;52.122;5.406;2024-01-30T07:01:03;4.72;;;2.67;;
79539;SDS011;74475;52.122;5.406;2024-01-30T07:03:30;3.65;;;2.35;;
79539;SDS011;74475;52.122;5.406;2024-01-30T07:05:56;4.72;;;2.70;;
79539;SDS011;74475;52.122;5.406;2024-01-30T07:08:23;3.70;;;1.95;;
79539;SDS011;74475;52.122;5.406;2024-01-30T07:10:49;4.20;;;2.70;;
79539;SDS011;74475;52.122;5.406;2024-01-30T07:13:16;3.65;;;2.53;;
79539;SDS011;74475;52.122;5.406;2024-01-30T07:15:43;2.90;;;2.10;;
79539;SDS011;74475;52.122;5.406;2024-01-30T07:18:09;4.15;;;2.35;;
79539;SDS011;74475;52.122;5.406;2024-01-30T07:20:36;4.07;;;2.30;;
79539;SDS011;74475;52.122;5.406;2024-01-30T07:23:02;3.47;;;2.28;;
79539;SDS011;74475;52.122;5.406;2024-01-30T07:25:29;4.60;;;2.30;;
79539;SDS011;74475;52.122;5.406;2024-01-30T07:27:56;5.32;;;2.33;;
79539;SDS011;74475;52.122;5.406;2024-01-30T07:30:23;3.00;;;2.10;;
79539;SDS011;74475;52.122;5.406;2024-01-30T07:32:50;3.58;;;2.50;;
79539;SDS011;74475;52.122;5.406;2024-01-30T07:35:16;3.97;;;2.10;;
79539;SDS011;74475;52.122;5.406;2024-01-30T07:37:43;6.88;;;2.50;;
79539;SDS011;74475;52.122;5.406;2024-01-30T07:40:09;3.22;;;2.20;;
79539;SDS011;74475;52.122;5.406;2024-01-30T07:42:36;4.88;;;2.30;;
79539;SDS011;74475;52.122;5.406;2024-01-30T07:45:03;5.00;;;2.50;;
79539;SDS011;74475;52.122;5.406;2024-01-30T07:47:29;3.20;;;2.40;;
79539;SDS011;74475;52.122;5.406;2024-01-30T07:49:56;3.13;;;2.30;;
79539;SDS011;74475;52.122;5.406;2024-01-30T07:52:23;5.78;;;2.30;;
79539;SDS011;74475;52.122;5.406;2024-01-30T07:54:50;3.22;;;2.50;;
79539;SDS011;74475;52.122;5.406;2024-01-30T07:57:17;3.33;;;2.20;;
79539;SDS011;74475;52.122;5.406;2024-01-30T07:59:44;3.45;;;2.35;;
79539;SDS011;74475;52.122;5.406;2024-01-30T08:02:13;2.85;;;2.20;;
79539;SDS011;74475;52.122;5.406;2024-01-30T08:04:40;3.33;;;2.20;;
79539;SDS011;74475;52.122;5.406;2024-01-30T08:07:07;2.85;;;2.20;;
79539;SDS011;74475;52.122;5.406;2024-01-30T08:09:34;3.58;;;2.60;;
79539;SDS011;74475;52.122;5.406;2024-01-30T08:12:00;3.17;;;2.20;;
79539;SDS011;74475;52.122;5.406;2024-01-30T08:14:27;6.05;;;2.55;;
79539;SDS011;74475;52.122;5.406;2024-01-30T08:16:54;4.10;;;2.17;;
79539;SDS011;74475;52.122;5.406;2024-01-30T08:19:21;4.63;;;2.65;;
79539;SDS011;74475;52.122;5.406;2024-01-30T08:21:48;4.68;;;2.30;;
79539;SDS011;74475;52.122;5.406;2024-01-30T08:24:14;3.05;;;2.20;;
79539;SDS011;74475;52.122;5.406;2024-01-30T08:26:41;3.35;;;2.42;;
79539;SDS011;74475;52.122;5.406;2024-01-30T08:29:08;3.08;;;2.53;;
79539;SDS011;74475;52.122;5.406;2024-01-30T08:31:34;3.50;;;2.17;;
79539;SDS011;74475;52.122;5.406;2024-01-30T08:34:01;3.38;;;2.08;;
79539;SDS011;74475;52.122;5.406;2024-01-30T08:36:28;3.60;;;2.30;;
79539;SDS011;74475;52.122;5.406;2024-01-30T08:38:54;2.97;;;2.50;;
79539;SDS011;74475;52.122;5.406;2024-01-30T08:41:27;5.78;;;2.58;;
79539;SDS011;74475;52.122;5.406;2024-01-30T08:43:53;3.03;;;2.50;;
79539;SDS011;74475;52.122;5.406;2024-01-30T08:46:20;2.83;;;1.98;;
79539;SDS011;74475;52.122;5.406;2024-01-30T08:48:47;4.00;;;2.22;;
79539;SDS011;74475;52.122;5.406;2024-01-30T08:51:14;4.20;;;2.42;;
79539;SDS011;74475;52.122;5.406;2024-01-30T08:53:41;3.83;;;2.15;;
79539;SDS011;74475;52.122;5.406;2024-01-30T08:56:08;3.33;;;2.42;;
79539;SDS011;74475;52.122;5.406;2024-01-30T08:58:34;4.10;;;2.47;;
79539;SDS011;74475;52.122;5.406;2024-01-30T09:01:01;3.63;;;2.60;;
79539;SDS011;74475;52.122;5.406;2024-01-30T09:03:27;2.70;;;1.98;;
79539;SDS011;74475;52.122;5.406;2024-01-30T09:05:54;4.30;;;2.88;;
79539;SDS011;74475;52.122;5.406;2024-01-30T09:08:20;2.60;;;2.13;;
79539;SDS011;74475;52.122;5.406;2024-01-30T09:10:47;2.67;;;2.00;;
79539;SDS011;74475;52.122;5.406;2024-01-30T09:13:14;5.10;;;2.70;;
79539;SDS011;74475;52.122;5.406;2024-01-30T09:15:41;5.53;;;2.40;;
79539;SDS011;74475;52.122;5.406;2024-01-30T09:18:09;2.92;;;2.33;;
79539;SDS011;74475;52.122;5.406;2024-01-30T09:20:35;6.47;;;2.28;;
79539;SDS011;74475;52.122;5.406;2024-01-30T09:23:02;4.20;;;2.55;;
79539;SDS011;74475;52.122;5.406;2024-01-30T09:25:28;4.18;;;2.35;;
79539;SDS011;74475;52.122;5.406;2024-01-30T09:27:55;5.78;;;2.20;;
79539;SDS011;74475;52.122;5.406;2024-01-30T09:30:21;5.50;;;3.17;;
79539;SDS011;74475;52.122;5.406;2024-01-30T09:32:48;5.85;;;2.50;;
79539;SDS011;74475;52.122;5.406;2024-01-30T09:35:14;4.47;;;2.63;;
79539;SDS011;74475;52.122;5.406;2024-01-30T09:37:41;4.60;;;2.60;;
79539;SDS011;74475;52.122;5.406;2024-01-30T09:40:08;4.15;;;2.15;;
79539;SDS011;74475;52.122;5.406;2024-01-30T09:42:35;4.25;;;2.50;;
79539;SDS011;74475;52.122;5.406;2024-01-30T09:45:05;3.75;;;2.28;;
79539;SDS011;74475;52.122;5.406;2024-01-30T09:47:32;3.80;;;2.42;;
79539;SDS011;74475;52.122;5.406;2024-01-30T09:50:07;4.10;;;2.45;;
79539;SDS011;74475;52.122;5.406;2024-01-30T09:52:35;4.30;;;2.03;;
79539;SDS011;74475;52.122;5.406;2024-01-30T09:55:02;4.75;;;2.72;;
79539;SDS011;74475;52.122;5.406;2024-01-30T09:57:29;3.78;;;2.65;;
79539;SDS011;74475;52.122;5.406;2024-01-30T09:59:56;4.97;;;2.70;;
79539;SDS011;74475;52.122;5.406;2024-01-30T10:02:22;3.80;;;2.47;;
79539;SDS011;74475;52.122;5.406;2024-01-30T10:04:50;3.97;;;2.33;;
79539;SDS011;74475;52.122;5.406;2024-01-30T10:07:17;4.22;;;2.47;;
79539;SDS011;74475;52.122;5.406;2024-01-30T10:09:45;11.45;;;2.92;;
79539;SDS011;74475;52.122;5.406;2024-01-30T10:12:12;3.42;;;2.50;;
79539;SDS011;74475;52.122;5.406;2024-01-30T10:14:39;3.92;;;2.67;;
79539;SDS011;74475;52.122;5.406;2024-01-30T10:17:10;4.78;;;3.00;;
79539;SDS011;74475;52.122;5.406;2024-01-30T10:19:49;3.40;;;2.65;;
79539;SDS011;74475;52.122;5.406;2024-01-30T10:22:17;3.67;;;1.80;;
79539;SDS011;74475;52.122;5.406;2024-01-30T10:24:44;5.18;;;2.38;;
79539;SDS011;74475;52.122;5.406;2024-01-30T10:27:11;5.38;;;2.35;;
79539;SDS011;74475;52.122;5.406;2024-01-30T10:29:38;5.20;;;2.40;;
79539;SDS011;74475;52.122;5.406;2024-01-30T10:32:04;3.05;;;2.22;;
79539;SDS011;74475;52.122;5.406;2024-01-30T10:34:31;3.38;;;2.45;;
79539;SDS011;74475;52.122;5.406;2024-01-30T10:37:01;4.93;;;2.22;;
79539;SDS011;74475;52.122;5.406;2024-01-30T10:39:39;4.85;;;2.38;;
79539;SDS011;74475;52.122;5.406;2024-01-30T10:42:12;4.97;;;2.60;;
79539;SDS011;74475;52.122;5.406;2024-01-30T10:47:14;5.50;;;2.83;;
79539;SDS011;74475;52.122;5.406;2024-01-30T10:49:44;5.50;;;2.47;;
79539;SDS011;74475;52.122;5.406;2024-01-30T10:52:13;4.80;;;2.72;;
79539;SDS011;74475;52.122;5.406;2024-01-30T10:54:41;3.08;;;2.13;;
79539;SDS011;74475;52.122;5.406;2024-01-30T10:57:11;3.53;;;2.53;;
79539;SDS011;74475;52.122;5.406;2024-01-30T10:59:39;3.53;;;2.13;;
79539;SDS011;74475;52.122;5.406;2024-01-30T11:02:07;4.38;;;2.25;;
79539;SDS011;74475;52.122;5.406;2024-01-30T11:04:37;4.22;;;2.53;;
79539;SDS011;74475;52.122;5.406;2024-01-30T11:07:17;3.00;;;2.13;;
79539;SDS011;74475;52.122;5.406;2024-01-30T11:09:51;3.63;;;2.03;;
79539;SDS011;74475;52.122;5.406;2024-01-30T11:12:21;3.88;;;2.35;;
79539;SDS011;74475;52.122;5.406;2024-01-30T11:14:50;3.00;;;1.92;;
79539;SDS011;74475;52.122;5.406;2024-01-30T11:20:18;4.18;;;2.10;;
79539;SDS011;74475;52.122;5.406;2024-01-30T11:22:46;2.97;;;2.50;;
79539;SDS011;74475;52.122;5.406;2024-01-30T11:25:14;2.67;;;2.22;;
79539;SDS011;74475;52.122;5.406;2024-01-30T11:27:43;4.70;;;2.60;;
79539;SDS011;74475;52.122;5.406;2024-01-30T11:30:11;3.97;;;1.80;;
79539;SDS011;74475;52.122;5.406;2024-01-30T11:35:38;3.47;;;2.03;;
79539;SDS011;74475;52.122;5.406;2024-01-30T11:38:10;2.90;;;1.70;;
79539;SDS011;74475;52.122;5.406;2024-01-30T11:40:37;4.15;;;1.80;;
79539;SDS011;74475;52.122;5.406;2024-01-30T11:43:06;2.50;;;1.88;;
79539;SDS011;74475;52.122;5.406;2024-01-30T11:45:34;4.10;;;1.80;;
79539;SDS011;74475;52.122;5.406;2024-01-30T11:48:01;5.20;;;2.05;;
79539;SDS011;74475;52.122;5.406;2024-01-30T11:50:32;2.67;;;2.05;;
79539;SDS011;74475;52.122;5.406;2024-01-30T11:53:01;3.40;;;1.80;;
79539;SDS011;74475;52.122;5.406;2024-01-30T11:55:29;2.15;;;1.85;;
79539;SDS011;74475;52.122;5.406;2024-01-30T11:58:00;2.60;;;1.80;;
79539;SDS011;74475;52.122;5.406;2024-01-30T12:00:27;2.95;;;1.98;;
79539;SDS011;74475;52.122;5.406;2024-01-30T12:02:54;3.97;;;2.10;;
79539;SDS011;74475;52.122;5.406;2024-01-30T12:05:27;2.67;;;1.70;;
79539;SDS011;74475;52.122;5.406;2024-01-30T12:07:54;3.13;;;2.08;;
79539;SDS011;74475;52.122;5.406;2024-01-30T12:10:21;3.20;;;2.00;;
79539;SDS011;74475;52.122;5.406;2024-01-30T12:12:49;2.05;;;1.60;;
79539;SDS011;74475;52.122;5.406;2024-01-30T12:15:17;3.67;;;1.98;;
79539;SDS011;74475;52.122;5.406;2024-01-30T12:17:44;3.15;;;1.73;;
79539;SDS011;74475;52.122;5.406;2024-01-30T12:20:12;2.30;;;1.55;;
79539;SDS011;74475;52.122;5.406;2024-01-30T12:22:41;3.75;;;1.83;;
79539;SDS011;74475;52.122;5.406;2024-01-30T12:25:08;3.78;;;1.60;;
79539;SDS011;74475;52.122;5.406;2024-01-30T12:27:36;2.70;;;1.52;;
79539;SDS011;74475;52.122;5.406;2024-01-30T12:30:06;3.10;;;1.75;;
79539;SDS011;74475;52.122;5.406;2024-01-30T12:32:37;2.25;;;1.50;;
79539;SDS011;74475;52.122;5.406;2024-01-30T12:35:12;2.50;;;1.70;;
79539;SDS011;74475;52.122;5.406;2024-01-30T12:37:43;2.72;;;1.55;;
79539;SDS011;74475;52.122;5.406;2024-01-30T12:40:11;2.25;;;1.45;;
79539;SDS011;74475;52.122;5.406;2024-01-30T12:45:13;3.35;;;1.50;;
79539;SDS011;74475;52.122;5.406;2024-01-30T12:47:41;2.03;;;1.40;;
79539;SDS011;74475;52.122;5.406;2024-01-30T12:50:08;2.20;;;1.55;;
79539;SDS011;74475;52.122;5.406;2024-01-30T12:52:36;3.13;;;1.85;;
79539;SDS011;74475;52.122;5.406;2024-01-30T12:55:03;3.95;;;1.90;;
79539;SDS011;74475;52.122;5.406;2024-01-30T12:57:30;3.03;;;1.45;;
79539;SDS011;74475;52.122;5.406;2024-01-30T12:59:57;2.38;;;1.27;;
79539;SDS011;74475;52.122;5.406;2024-01-30T13:02:23;2.10;;;1.45;;
79539;SDS011;74475;52.122;5.406;2024-01-30T13:04:50;3.25;;;1.67;;
79539;SDS011;74475;52.122;5.406;2024-01-30T13:07:17;2.50;;;1.30;;
79539;SDS011;74475;52.122;5.406;2024-01-30T13:09:43;2.30;;;1.70;;
79539;SDS011;74475;52.122;5.406;2024-01-30T13:12:10;2.42;;;2.22;;
79539;SDS011;74475;52.122;5.406;2024-01-30T13:14:36;2.42;;;1.50;;
79539;SDS011;74475;52.122;5.406;2024-01-30T13:17:03;2.58;;;1.65;;
79539;SDS011;74475;52.122;5.406;2024-01-30T13:19:30;1.60;;;1.35;;
79539;SDS011;74475;52.122;5.406;2024-01-30T13:21:57;3.33;;;1.60;;
79539;SDS011;74475;52.122;5.406;2024-01-30T13:24:24;2.20;;;1.58;;
79539;SDS011;74475;52.122;5.406;2024-01-30T13:26:50;2.47;;;1.67;;
79539;SDS011;74475;52.122;5.406;2024-01-30T13:29:18;4.50;;;1.40;;
79539;SDS011;74475;52.122;5.406;2024-01-30T13:31:45;3.08;;;1.30;;
79539;SDS011;74475;52.122;5.406;2024-01-30T13:34:13;1.95;;;1.48;;
79539;SDS011;74475;52.122;5.406;2024-01-30T13:36:40;3.22;;;1.25;;
79539;SDS011;74475;52.122;5.406;2024-01-30T13:39:07;3.40;;;1.58;;
79539;SDS011;74475;52.122;5.406;2024-01-30T13:41:36;2.15;;;1.08;;
79539;SDS011;74475;52.122;5.406;2024-01-30T13:44:03;2.60;;;1.23;;
79539;SDS011;74475;52.122;5.406;2024-01-30T13:46:30;2.20;;;1.33;;
79539;SDS011;74475;52.122;5.406;2024-01-30T13:48:57;2.92;;;1.20;;
79539;SDS011;74475;52.122;5.406;2024-01-30T13:51:24;3.03;;;1.17;;
79539;SDS011;74475;52.122;5.406;2024-01-30T13:53:51;2.53;;;1.10;;
79539;SDS011;74475;52.122;5.406;2024-01-30T13:56:17;2.78;;;1.10;;
79539;SDS011;74475;52.122;5.406;2024-01-30T13:58:44;3.58;;;1.30;;
79539;SDS011;74475;52.122;5.406;2024-01-30T14:01:11;2.38;;;1.13;;
79539;SDS011;74475;52.122;5.406;2024-01-30T14:03:37;2.35;;;1.30;;
79539;SDS011;74475;52.122;5.406;2024-01-30T14:06:04;2.30;;;1.30;;
79539;SDS011;74475;52.122;5.406;2024-01-30T14:08:31;2.47;;;1.17;;
79539;SDS011;74475;52.122;5.406;2024-01-30T14:10:58;2.67;;;1.30;;
79539;SDS011;74475;52.122;5.406;2024-01-30T14:13:24;2.30;;;1.10;;
79539;SDS011;74475;52.122;5.406;2024-01-30T14:15:52;1.83;;;1.00;;
79539;SDS011;74475;52.122;5.406;2024-01-30T14:18:19;1.15;;;0.95;;
79539;SDS011;74475;52.122;5.406;2024-01-30T14:20:46;1.50;;;0.90;;
79539;SDS011;74475;52.122;5.406;2024-01-30T14:23:13;3.05;;;1.30;;
79539;SDS011;74475;52.122;5.406;2024-01-30T14:25:39;2.85;;;1.15;;
79539;SDS011;74475;52.122;5.406;2024-01-30T14:28:06;3.63;;;1.10;;
79539;SDS011;74475;52.122;5.406;2024-01-30T14:30:33;2.13;;;1.15;;
79539;SDS011;74475;52.122;5.406;2024-01-30T14:33:00;2.05;;;1.00;;
79539;SDS011;74475;52.122;5.406;2024-01-30T14:35:26;1.65;;;1.05;;
79539;SDS011;74475;52.122;5.406;2024-01-30T14:37:53;1.30;;;0.90;;
79539;SDS011;74475;52.122;5.406;2024-01-30T14:40:20;2.00;;;0.85;;
79539;SDS011;74475;52.122;5.406;2024-01-30T14:42:47;2.38;;;0.90;;
79539;SDS011;74475;52.122;5.406;2024-01-30T14:45:14;1.60;;;1.00;;
79539;SDS011;74475;52.122;5.406;2024-01-30T14:47:41;1.90;;;1.00;;
79539;SDS011;74475;52.122;5.406;2024-01-30T14:50:07;1.52;;;0.85;;
79539;SDS011;74475;52.122;5.406;2024-01-30T14:52:35;3.17;;;1.05;;
79539;SDS011;74475;52.122;5.406;2024-01-30T14:55:02;1.48;;;1.02;;
79539;SDS011;74475;52.122;5.406;2024-01-30T14:57:29;2.13;;;1.13;;
79539;SDS011;74475;52.122;5.406;2024-01-30T14:59:56;1.73;;;1.05;;